Time;durP1;ratioP1;P1;durP2;ratioP2;P2;SDS_P1;SDS_P2;PMS_P1;PMS_P2;Temp;Humidity;BMP_temperature;BMP_pressure;BME280_temperature;BME280_humidity;BME280_pressure;Samples;Min_cycle;Max_cycle;Signal;HPM_P1;HPM_P2
2021/12/06 00:04:41;;;;;;;0.80;0.20;;;-1.50;99.90;;;;;;20812986;28;20029;-49
2021/12/06 00:14:44;;;;;;;1.00;0.20;;;-1.50;99.90;;;;;;20813140;28;20033;-48
2021/12/06 00:24:47;;;;;;;0.65;0.20;;;-1.50;99.90;;;;;;20811557;28;20091;-47
2021/12/06 00:34:50;;;;;;;3.28;0.40;;;-1.60;99.90;;;;;;20810507;28;20049;-48
2021/12/06 00:44:53;;;;;;;0.43;0.20;;;-1.60;99.90;;;;;;20810060;28;20033;-48
2021/12/06 00:54:56;;;;;;;0.90;0.20;;;-1.70;99.90;;;;;;20793134;28;20453;-48
2021/12/06 01:04:59;;;;;;;0.55;0.20;;;-1.80;99.90;;;;;;20808630;28;20037;-49
2021/12/06 01:15:03;;;;;;;0.50;0.10;;;-1.60;99.90;;;;;;20772059;28;20175;-49
2021/12/06 01:25:18;;;;;;;1.23;0.22;;;-1.60;99.90;;;;;;20709266;28;20041;-47
2021/12/06 01:45:42;;;;;;;0.30;0.10;;;-1.80;99.90;;;;;;20805264;28;20041;-48
2021/12/06 01:55:46;;;;;;;0.30;0.00;;;-1.90;99.90;;;;;;20819297;28;20478;-48
2021/12/06 02:05:50;;;;;;;0.50;0.20;;;-1.80;99.90;;;;;;20804171;28;20095;-49
2021/12/06 02:15:57;;;;;;;0.20;0.00;;;-1.80;99.90;;;;;;20802124;28;20375;-49
2021/12/06 02:26:07;;;;;;;0.10;0.00;;;-1.70;99.90;;;;;;20802061;28;20037;-48
2021/12/06 02:36:11;;;;;;;0.90;0.20;;;-1.60;99.50;;;;;;20801646;28;20045;-47
2021/12/06 02:46:15;;;;;;;1.48;0.10;;;-1.50;99.10;;;;;;20801074;28;20029;-47
2021/12/06 03:06:48;;;;;;;0.00;0.00;;;-1.60;99.00;;;;;;20564626;28;20457;-49
2021/12/06 03:16:53;;;;;;;0.00;0.00;;;-1.50;98.50;;;;;;20499745;28;20433;-49
2021/12/06 03:26:57;;;;;;;0.10;0.03;;;-1.50;97.80;;;;;;20482248;29;20114;-48
2021/12/06 03:37:04;;;;;;;0.00;0.00;;;-1.40;97.20;;;;;;20566331;28;20077;-49
2021/12/06 03:47:17;;;;;;;0.10;0.00;;;-1.50;97.60;;;;;;20749048;28;20087;-49
2021/12/06 03:57:21;;;;;;;;;;;-1.60;97.10;;;;;;20748985;28;20099;-48
2021/12/06 04:07:25;;;;;;;0.25;0.00;;;-1.70;98.00;;;;;;20747492;28;19917;-49
2021/12/06 04:17:28;;;;;;;0.10;0.00;;;-1.80;98.10;;;;;;20786314;28;20433;-48
2021/12/06 04:27:31;;;;;;;0.38;0.10;;;-1.90;98.50;;;;;;20811335;28;20441;-50
2021/12/06 04:37:35;;;;;;;0.55;0.00;;;-2.10;98.30;;;;;;20794172;28;20502;-48
2021/12/06 04:47:38;;;;;;;0.20;0.03;;;-2.30;98.40;;;;;;20809656;28;20088;-48
2021/12/06 04:57:45;;;;;;;0.10;0.00;;;-2.50;98.80;;;;;;20809379;28;20064;-48
2021/12/06 05:07:54;;;;;;;0.10;0.00;;;-2.50;98.60;;;;;;20809417;28;20041;-52
2021/12/06 05:17:58;;;;;;;0.00;0.00;;;-2.60;98.50;;;;;;20765932;28;20038;-49
2021/12/06 05:28:01;;;;;;;0.00;0.00;;;-2.70;98.80;;;;;;20708842;28;20041;-49
2021/12/06 05:38:07;;;;;;;0.25;0.00;;;-2.80;98.70;;;;;;20762855;28;20474;-47
2021/12/06 05:48:09;;;;;;;0.00;0.00;;;-2.90;98.70;;;;;;20803960;28;20037;-48
2021/12/06 05:58:14;;;;;;;0.20;0.00;;;-3.00;98.90;;;;;;20804710;28;20448;-49
2021/12/06 06:08:16;;;;;;;0.80;0.10;;;-3.00;98.60;;;;;;20803747;28;20033;-48
2021/12/06 06:18:19;;;;;;;0.20;0.00;;;-2.80;98.50;;;;;;20803459;28;20390;-49
2021/12/06 06:28:22;;;;;;;0.32;0.00;;;-2.70;97.80;;;;;;20803049;28;20064;-49
2021/12/06 06:38:24;;;;;;;0.00;0.00;;;-2.70;97.50;;;;;;20801293;28;20057;-48
2021/12/06 06:48:26;;;;;;;0.10;0.00;;;-2.80;97.10;;;;;;20801481;28;20033;-48
2021/12/06 06:58:29;;;;;;;0.30;0.00;;;-2.90;97.30;;;;;;20800685;28;20037;-49
2021/12/06 07:08:32;;;;;;;0.00;0.00;;;-2.80;97.10;;;;;;20800528;28;20760;-48
2021/12/06 07:18:35;;;;;;;0.08;0.00;;;-2.80;97.50;;;;;;20735709;28;20045;-49
2021/12/06 07:28:40;;;;;;;0.25;0.00;;;-2.70;97.20;;;;;;20719505;28;20034;-51
2021/12/06 07:38:42;;;;;;;1.45;0.00;;;-2.50;97.00;;;;;;20776710;28;20049;-51
2021/12/06 07:48:45;;;;;;;0.00;0.00;;;-2.10;96.80;;;;;;20798481;28;20474;-58
2021/12/06 07:58:49;;;;;;;0.00;0.00;;;-1.60;95.30;;;;;;20798169;28;20091;-48
2021/12/06 08:08:51;;;;;;;0.30;0.00;;;-1.20;94.40;;;;;;20803798;28;20107;-48
2021/12/06 08:18:54;;;;;;;0.00;0.00;;;-1.00;94.20;;;;;;20811234;28;20087;-49
2021/12/06 08:28:58;;;;;;;0.10;0.00;;;-0.70;94.20;;;;;;20810661;28;20049;-48
2021/12/06 08:39:05;;;;;;;0.08;0.00;;;-0.30;93.00;;;;;;20809845;28;20080;-54
2021/12/06 08:49:09;;;;;;;0.20;0.10;;;0.00;92.20;;;;;;20809305;28;20102;-48
2021/12/06 08:59:12;;;;;;;0.32;0.10;;;0.20;92.30;;;;;;20809091;28;20503;-50
2021/12/06 09:09:46;;;;;;;0.10;0.00;;;0.40;92.00;;;;;;20652813;28;20087;-49
2021/12/06 09:19:53;;;;;;;0.22;0.00;;;0.50;90.30;;;;;;20562314;28;20153;-48
2021/12/06 09:29:57;;;;;;;0.10;0.00;;;0.90;89.50;;;;;;20554455;28;20500;-49
2021/12/06 09:40:01;;;;;;;0.00;0.00;;;1.20;88.60;;;;;;20622700;28;20499;-51
2021/12/06 09:50:05;;;;;;;0.28;0.10;;;1.20;87.70;;;;;;20649011;28;20212;-51
2021/12/06 10:00:11;;;;;;;0.40;0.05;;;1.30;85.10;;;;;;20632475;28;20136;-48
2021/12/06 10:10:15;;;;;;;0.10;0.00;;;1.70;84.80;;;;;;20631381;28;20120;-49
2021/12/06 10:20:17;;;;;;;0.10;0.03;;;1.90;85.10;;;;;;20643208;28;20121;-50
2021/12/06 10:30:22;;;;;;;0.10;0.00;;;2.10;82.60;;;;;;20646037;28;20477;-49
2021/12/06 10:40:32;;;;;;;0.15;0.03;;;2.20;82.00;;;;;;20645710;28;20070;-53
2021/12/06 10:50:42;;;;;;;0.17;0.00;;;2.30;80.20;;;;;;20645375;28;20054;-58
2021/12/06 11:01:06;;;;;;;0.10;0.00;;;2.30;80.80;;;;;;20644742;28;20146;-58
2021/12/06 11:11:17;;;;;;;0.10;0.00;;;2.40;79.00;;;;;;20611103;28;20112;-58
2021/12/06 11:21:34;;;;;;;0.95;0.10;;;2.50;78.60;;;;;;20627453;28;20467;-58
2021/12/06 11:31:37;;;;;;;0.20;0.00;;;2.80;76.40;;;;;;20692263;28;20130;-59
2021/12/06 11:41:43;;;;;;;0.60;0.10;;;2.30;76.20;;;;;;20800630;28;20097;-57
2021/12/06 11:51:49;;;;;;;0.10;0.00;;;2.40;76.40;;;;;;20813231;28;20041;-57
2021/12/06 12:02:10;;;;;;;0.45;0.10;;;2.70;74.50;;;;;;20812138;28;20056;-59
2021/12/06 12:12:23;;;;;;;0.57;0.00;;;2.70;75.60;;;;;;20811216;28;20135;-59
2021/12/06 12:22:28;;;;;;;0.28;0.10;;;3.20;75.00;;;;;;20811053;28;20045;-58
2021/12/06 12:32:32;;;;;;;0.32;0.00;;;3.00;73.10;;;;;;20809474;28;20420;-58
2021/12/06 12:42:35;;;;;;;0.52;0.08;;;2.90;75.20;;;;;;20808666;28;20107;-59
2021/12/06 12:52:42;;;;;;;0.00;0.00;;;2.70;76.10;;;;;;20807832;28;20091;-59
2021/12/06 13:02:46;;;;;;;0.47;0.20;;;2.80;76.00;;;;;;20807939;28;20037;-59
2021/12/06 13:13:19;;;;;;;0.63;0.10;;;2.00;77.20;;;;;;20790169;28;20046;-59
2021/12/06 13:23:26;;;;;;;0.30;0.10;;;1.70;76.70;;;;;;20723661;28;20045;-60
2021/12/06 13:33:38;;;;;;;0.10;0.00;;;1.50;77.60;;;;;;20724468;28;20053;-58
2021/12/06 13:44:04;;;;;;;0.30;0.00;;;1.30;78.40;;;;;;20804086;28;20042;-58
2021/12/06 13:54:18;;;;;;;0.55;0.10;;;1.10;78.50;;;;;;20803204;28;20049;-59
2021/12/06 14:04:24;;;;;;;0.10;0.00;;;0.90;80.70;;;;;;20801909;28;20033;-58
2021/12/06 14:14:30;;;;;;;0.20;0.10;;;0.60;82.20;;;;;;20801836;28;20068;-59
2021/12/06 14:24:36;;;;;;;0.95;0.08;;;0.40;82.70;;;;;;20801497;28;20037;-51
2021/12/06 14:34:41;;;;;;;0.30;0.08;;;0.30;83.10;;;;;;20801221;28;20108;-48
2021/12/06 14:45:00;;;;;;;0.30;0.10;;;0.20;82.40;;;;;;20800088;28;20142;-49
2021/12/06 15:05:38;;;;;;;0.10;0.00;;;-0.50;83.80;;;;;;20798930;28;20532;-49
2021/12/06 15:15:47;;;;;;;0.65;0.10;;;-0.80;85.90;;;;;;20761694;28;20057;-47
2021/12/06 15:25:53;;;;;;;0.17;0.03;;;-1.20;86.80;;;;;;20733871;28;20054;-50
2021/12/06 15:36:00;;;;;;;1.48;0.00;;;-1.40;87.90;;;;;;20768391;28;20042;-53
2021/12/06 15:46:04;;;;;;;0.20;0.03;;;-1.60;89.80;;;;;;20813623;28;20452;-51
2021/12/06 15:56:07;;;;;;;0.22;0.10;;;-2.30;92.50;;;;;;20812271;28;20125;-48
2021/12/06 16:06:12;;;;;;;0.22;0.10;;;-2.90;93.00;;;;;;20812554;28;20397;-48
2021/12/06 16:16:19;;;;;;;0.10;0.03;;;-3.00;93.00;;;;;;20811272;28;20493;-49
2021/12/06 16:26:27;;;;;;;0.00;0.00;;;-3.10;92.70;;;;;;20809981;28;20099;-52
2021/12/06 16:36:43;;;;;;;0.60;0.00;;;-2.80;91.50;;;;;;20809560;28;20100;-49
2021/12/06 16:46:50;;;;;;;0.00;0.00;;;-2.30;90.60;;;;;;20809127;28;20056;-48
2021/12/06 16:57:02;;;;;;;0.20;0.03;;;-2.30;92.10;;;;;;20808956;28;20037;-48
2021/12/06 17:07:22;;;;;;;0.13;0.00;;;-2.50;91.60;;;;;;20808168;28;20532;-52
2021/12/06 17:17:44;;;;;;;0.10;0.10;;;-2.20;90.20;;;;;;20735052;28;20046;-48
2021/12/06 17:27:48;;;;;;;1.95;0.10;;;-2.20;90.30;;;;;;20724240;28;20034;-52
2021/12/06 17:37:51;;;;;;;0.60;0.10;;;-2.20;89.70;;;;;;20755913;28;20045;-52
2021/12/06 17:47:55;;;;;;;0.20;0.10;;;-2.40;90.30;;;;;;20804148;28;20053;-49
2021/12/06 17:58:10;;;;;;;1.00;0.05;;;-2.60;91.00;;;;;;20803648;28;20469;-49
2021/12/06 18:08:17;;;;;;;1.65;0.20;;;-2.70;91.20;;;;;;20802857;28;20038;-49
2021/12/06 18:18:22;;;;;;;0.30;0.05;;;-2.50;91.20;;;;;;20819502;28;20437;-49
2021/12/06 18:28:27;;;;;;;0.10;0.00;;;-2.40;91.50;;;;;;20801632;28;20099;-48
2021/12/06 18:38:38;;;;;;;1.38;0.10;;;-2.40;90.20;;;;;;20800792;28;20572;-49
2021/12/06 18:48:44;;;;;;;1.53;0.00;;;-2.20;89.50;;;;;;20800508;28;20095;-48
2021/12/06 18:58:47;;;;;;;0.22;0.00;;;-2.10;87.60;;;;;;20799881;28;20075;-47
2021/12/06 19:08:51;;;;;;;0.30;0.10;;;-2.00;86.40;;;;;;20799502;28;20037;-49
2021/12/06 19:18:53;;;;;;;0.13;0.00;;;-2.10;86.50;;;;;;20667630;28;20034;-49
2021/12/06 19:28:58;;;;;;;0.22;0.10;;;-2.40;89.70;;;;;;20653509;28;20104;-48
2021/12/06 19:39:02;;;;;;;0.10;0.00;;;-2.60;88.40;;;;;;20770785;28;20049;-49
2021/12/06 19:49:05;;;;;;;0.00;0.00;;;-3.00;88.90;;;;;;20798979;28;20042;-51
2021/12/06 19:59:10;;;;;;;0.20;0.00;;;-3.10;89.80;;;;;;20798709;28;20091;-50
2021/12/06 20:09:14;;;;;;;0.93;0.10;;;-3.00;89.70;;;;;;20811394;28;20037;-52
2021/12/06 20:19:18;;;;;;;2.28;0.00;;;-2.70;89.20;;;;;;20860273;28;20061;-52
2021/12/06 20:29:21;;;;;;;0.20;0.00;;;-2.60;88.60;;;;;;20894512;28;20468;-57
2021/12/06 20:39:24;;;;;;;0.43;0.10;;;-2.70;88.20;;;;;;20894143;28;20567;-59
2021/12/06 20:49:27;;;;;;;0.20;0.00;;;-2.60;87.40;;;;;;20893314;28;20106;-58
2021/12/06 20:59:29;;;;;;;0.45;0.00;;;-2.50;88.00;;;;;;20925430;28;20064;-57
2021/12/06 21:09:34;;;;;;;0.10;0.00;;;-2.70;88.20;;;;;;20828239;28;20038;-56
2021/12/06 21:19:37;;;;;;;0.13;0.00;;;-2.90;88.90;;;;;;20791387;28;20506;-56
2021/12/06 21:29:41;;;;;;;0.10;0.00;;;-3.10;90.00;;;;;;20807377;28;20095;-57
2021/12/06 21:39:45;;;;;;;0.15;0.08;;;-3.30;89.50;;;;;;20806049;28;20103;-58
2021/12/06 21:49:49;;;;;;;0.52;0.00;;;-3.30;90.00;;;;;;20789826;28;20049;-59
2021/12/06 21:59:51;;;;;;;0.15;0.03;;;-3.30;88.40;;;;;;20805050;28;20037;-60
2021/12/06 22:09:54;;;;;;;0.00;0.00;;;-3.20;89.10;;;;;;20804580;28;20037;-52
2021/12/06 22:20:00;;;;;;;0.17;0.00;;;-3.20;87.80;;;;;;20662990;28;20089;-50
2021/12/06 22:30:11;;;;;;;0.00;0.00;;;-3.30;87.50;;;;;;20655933;28;20034;-48
2021/12/06 22:40:17;;;;;;;1.85;0.05;;;-3.50;89.00;;;;;;20772264;28;20049;-48
2021/12/06 22:50:20;;;;;;;0.28;0.00;;;-3.60;90.00;;;;;;20801894;28;20037;-49
2021/12/06 23:00:30;;;;;;;0.80;0.00;;;-3.60;90.10;;;;;;20801540;28;20033;-50
2021/12/06 23:10:33;;;;;;;0.00;0.00;;;-3.60;90.90;;;;;;20735318;28;20034;-49
2021/12/06 23:20:36;;;;;;;0.40;0.00;;;-3.80;90.70;;;;;;20800439;28;20394;-50
2021/12/06 23:30:39;;;;;;;0.00;0.00;;;-3.90;91.00;;;;;;20799826;28;20088;-48
2021/12/06 23:41:01;;;;;;;0.28;0.00;;;-4.10;92.00;;;;;;20810590;28;20444;-49
2021/12/06 23:51:04;;;;;;;0.17;0.00;;;-4.50;93.20;;;;;;20815361;28;20456;-49
